createdAt,value
2022-09-14T00:07:18.030Z,24.73
2022-09-14T00:17:19.259Z,24.68
2022-09-14T00:27:21.493Z,24.68
2022-09-14T00:37:22.795Z,24.72
2022-09-14T00:47:24.039Z,24.73
2022-09-14T00:57:25.277Z,24.61
2022-09-14T01:07:26.527Z,24.60
2022-09-14T01:17:27.762Z,24.65
2022-09-14T01:27:29.006Z,24.63
2022-09-14T01:37:30.222Z,24.62
2022-09-14T01:47:31.515Z,24.67
2022-09-14T01:57:32.751Z,24.61
2022-09-14T02:07:34.023Z,24.59
2022-09-14T02:17:35.425Z,24.62
2022-09-14T02:27:36.673Z,24.59
2022-09-14T02:37:37.942Z,24.52
2022-09-14T02:47:39.198Z,24.54
2022-09-14T02:57:40.426Z,24.50
2022-09-14T03:07:41.643Z,24.51
2022-09-14T03:17:42.869Z,24.48
2022-09-14T03:27:44.099Z,24.53
2022-09-14T03:37:45.327Z,24.50
2022-09-14T03:47:46.559Z,24.46
2022-09-14T03:57:47.765Z,24.49
2022-09-14T04:07:48.993Z,24.48
2022-09-14T04:17:50.245Z,24.45
2022-09-14T04:28:16.869Z,24.43
2022-09-14T04:38:12.749Z,24.47
2022-09-14T04:48:14.002Z,24.43
2022-09-14T04:58:15.224Z,24.37
2022-09-14T05:08:16.470Z,24.43
2022-09-14T05:18:17.699Z,24.45
2022-09-14T05:28:18.905Z,24.25
2022-09-14T05:38:20.196Z,24.44
2022-09-14T05:48:21.411Z,24.38
2022-09-14T05:58:22.658Z,24.46
2022-09-14T06:08:23.875Z,24.44
2022-09-14T06:18:25.103Z,24.40
2022-09-14T06:28:26.460Z,24.47
2022-09-14T06:38:27.881Z,24.44
2022-09-14T06:48:29.282Z,24.45
2022-09-14T06:58:30.609Z,24.42
2022-09-14T07:08:31.863Z,24.45
2022-09-14T07:18:34.273Z,24.45
2022-09-14T07:28:35.543Z,24.42
2022-09-14T07:38:51.556Z,24.43
2022-09-14T07:48:53.689Z,24.37
2022-09-14T07:59:03.335Z,24.42
2022-09-14T08:09:16.290Z,24.45
2022-09-14T08:19:17.497Z,24.44
2022-09-14T08:29:18.739Z,24.43
2022-09-14T08:39:20.063Z,24.46
2022-09-14T08:49:21.388Z,24.41
2022-09-14T08:59:22.822Z,24.43
2022-09-14T09:09:24.234Z,24.40
2022-09-14T09:19:28.668Z,24.44
2022-09-14T09:29:36.624Z,24.44
2022-09-14T09:39:44.595Z,24.44
2022-09-14T09:49:52.516Z,24.45
2022-09-14T10:00:00.516Z,24.44
2022-09-14T10:10:08.504Z,24.44
2022-09-14T10:20:16.485Z,24.44
2022-09-14T10:30:24.571Z,24.43
2022-09-14T10:40:32.673Z,24.44
2022-09-14T10:50:40.606Z,24.45
2022-09-14T11:11:11.541Z,24.40
2022-09-14T11:21:13.084Z,24.44
2022-09-14T11:31:14.851Z,24.41
2022-09-14T11:51:45.019Z,24.40
2022-09-14T12:01:46.296Z,24.41
2022-09-14T12:11:47.664Z,24.38
2022-09-14T12:21:56.174Z,24.38
2022-09-14T12:32:01.179Z,24.38
2022-09-14T13:23:58.326Z,24.38
2022-09-14T13:34:00.809Z,24.35
2022-09-14T13:44:08.792Z,24.34
2022-09-14T13:54:16.906Z,24.34
2022-09-14T14:04:25.358Z,24.34
2022-09-14T14:14:33.603Z,24.30
2022-09-14T14:25:02.402Z,24.33
2022-09-14T14:35:02.615Z,24.31
2022-09-14T14:45:03.970Z,24.30
2022-09-14T14:55:13.647Z,24.33
2022-09-14T15:05:15.125Z,24.30
2022-09-14T15:25:45.269Z,24.31
2022-09-14T15:35:54.015Z,24.32
2022-09-14T15:45:55.683Z,24.32
2022-09-14T15:55:57.205Z,24.31
2022-09-14T16:06:05.194Z,24.32
2022-09-14T16:26:35.454Z,24.23
2022-09-14T16:36:36.688Z,24.21
2022-09-14T16:57:06.887Z,24.20
2022-09-14T17:07:08.207Z,24.21
2022-09-14T17:17:09.888Z,24.20
2022-09-14T17:27:13.843Z,24.17
2022-09-14T17:37:21.616Z,24.16
2022-09-14T17:57:51.782Z,24.18
2022-09-14T18:07:53.138Z,24.20
2022-09-14T18:17:54.441Z,24.17
2022-09-14T18:27:55.885Z,24.12
2022-09-14T18:37:57.122Z,24.12
2022-09-14T18:47:58.349Z,24.09
2022-09-14T18:58:02.022Z,24.08
2022-09-14T19:08:03.391Z,24.04
2022-09-14T19:18:04.735Z,24.06
2022-09-14T19:28:06.019Z,24.02
2022-09-14T19:38:07.250Z,24.01
2022-09-14T19:48:08.598Z,23.99
2022-09-14T19:58:09.921Z,24.05
2022-09-14T20:08:11.168Z,24.03
2022-09-14T20:18:12.401Z,24.02
2022-09-14T20:28:19.165Z,24.00
2022-09-14T20:38:20.637Z,23.90
2022-09-14T20:48:21.897Z,24.02
2022-09-14T20:58:23.191Z,23.96
2022-09-14T21:08:24.452Z,23.96
2022-09-14T21:18:25.692Z,23.85
2022-09-14T21:28:27.045Z,23.93
2022-09-14T21:38:28.272Z,23.87
2022-09-14T21:48:29.541Z,23.84
2022-09-14T21:58:30.846Z,23.90
2022-09-14T22:08:32.067Z,23.84
2022-09-14T22:18:33.288Z,23.91
2022-09-14T22:28:34.511Z,23.93
2022-09-14T22:38:35.814Z,23.94
2022-09-14T22:48:37.049Z,23.76
2022-09-14T22:58:38.282Z,23.85
2022-09-14T23:08:39.505Z,23.80
2022-09-14T23:18:40.844Z,23.88
2022-09-14T23:28:42.136Z,23.81
2022-09-14T23:38:43.385Z,23.84
2022-09-14T23:48:44.647Z,23.83
2022-09-14T23:58:45.890Z,23.81
